Create Tblcommutelog Verified Points Advance Search
| # | Trip ID | Id Commuter | Trip Date | Trip Num | Current Lat | Current Lng | Delta Distance | Current Time | Activity | Activity Confidence | Current Speed | |
|---|---|---|---|---|---|---|---|---|---|---|---|---|
| 72521 | 250523_785232_6438355_0701 | 785232 | (not set) | (not set) | 38.882015505726 | -77.112067887685 | 4.3538 | 2025-05-23 11:25:35.963 | in_vehicle | 100 | -0.44703925898772 | |
| 72522 | 250523_768061_16513794_0713 | 768061 | (not set) | (not set) | 39.1763494 | -76.8429217 | 8.3307 | 2025-05-23 11:25:36.238 | in_vehicle | 100 | 9.5264066090284 | |
| 72523 | 250523_781944_6458276_0705 | 781944 | (not set) | (not set) | 38.894672037072 | -77.009878765844 | 0.8759 | 2025-05-23 11:25:38.381 | on_foot | 100 | 0.51409514783588 | |
| 72524 | 250523_768385_16488872_0711 | 768385 | (not set) | (not set) | 39.361449378423 | -77.41378941201 | 4.6032 | 2025-05-23 11:25:41.339 | in_vehicle | 100 | 8.0690586247284 | |
| 72525 | 250523_770872_16486958_0638 | 770872 | (not set) | (not set) | 39.29216705732 | -76.623417371955 | 27.2831 | 2025-05-23 11:25:41.87 | on_foot | 100 | 1.4975815176089 | |
| 72526 | 250523_776186_16511869_0653 | 776186 | (not set) | (not set) | 39.047923970228 | -77.112822845176 | 4.5972 | 2025-05-23 11:25:42.295 | on_foot | 100 | 0.59456221445367 | |
| 72527 | 250523_784917_16428364_0629 | 784917 | (not set) | (not set) | 38.95616784444 | -77.402604572661 | 20.8545 | 2025-05-23 11:25:42.436 | in_vehicle | 100 | 9.1598344166585 | |
| 72528 | 250523_784917_16428364_0629 | 784917 | (not set) | (not set) | 38.956089405269 | -77.40238375611 | 20.8676 | 2025-05-23 11:25:43.18 | in_vehicle | 100 | 9.2179495203269 | |
| 72529 | 250523_783678_6452825_0725 | 783678 | (not set) | (not set) | 39.028961181641 | -77.045980654176 | 0 | 2025-05-23 11:25:43.592 | unknown | 100 | -0.44703925898772 | |
| 72530 | 250523_783678_6452825_0725 | 783678 | (not set) | (not set) | 39.038696570146 | -77.050395852981 | 0 | 2025-05-23 11:25:43.724 | still | 33 | -0.44703925898772 | |
| 72531 | 250523_784917_16428364_0629 | 784917 | (not set) | (not set) | 38.95516638113 | -77.399529245859 | 21.034 | 2025-05-23 11:25:56.332 | in_vehicle | 100 | 9.6605183867247 | |
| 72532 | 250523_768385_16488872_0711 | 768385 | (not set) | (not set) | 39.359353729372 | -77.415260403631 | 4.7679 | 2025-05-23 11:25:57.284 | in_vehicle | 100 | 7.9215356692625 | |
| 72533 | 250523_767309_16652068_0707 | 767309 | (not set) | (not set) | 38.916973121864 | -77.048054711243 | 0 | 2025-05-23 11:25:58.415 | in_vehicle | 100 | -0.44703925898772 | |
| 72534 | 250523_782739_16510109_0721 | 782739 | (not set) | (not set) | 39.107447785428 | -77.557964720674 | 0.5071 | 2025-05-23 11:26:08.262 | on_bicycle | 100 | -0.44703925898772 | |
| 72535 | 250523_782739_16510109_0721 | 782739 | (not set) | (not set) | 39.107447785428 | -77.557964720674 | 0 | 2025-05-23 11:26:08.27 | on_bicycle | 100 | -0.44703925898772 | |
| 72536 | 250523_784917_16428364_0629 | 784917 | (not set) | (not set) | 38.954486689346 | -77.396700766685 | 21.1933 | 2025-05-23 11:26:09.342 | in_vehicle | 100 | 8.9407851797545 | |
| 72537 | 250523_768385_16488872_0711 | 768385 | (not set) | (not set) | 39.357907426865 | -77.417653474939 | 4.9303 | 2025-05-23 11:26:10.279 | in_vehicle | 100 | 7.9617692025714 | |
| 72538 | 250523_779005_6432046_0726 | 779005 | (not set) | (not set) | 39.0094346 | -77.0498325 | 0 | 2025-05-23 11:26:11.003 | still | 100 | 0.31739787388128 | |
| 72539 | 250523_779005_6432046_0726 | 779005 | (not set) | (not set) | 39.0094346 | -77.0498325 | 0 | 2025-05-23 11:26:11.197 | walking | 100 | 0.31739787388128 | |
| 72540 | 250523_777375_16513753_0708 | 777375 | (not set) | (not set) | 38.946227761958 | -76.89429895425 | 0.3039 | 2025-05-23 11:26:12.034 | unknown | 100 | 0.093878244387422 |